sensor_id;sensor_type;location;lat;lon;timestamp;P1;durP1;ratioP1;P2;durP2;ratioP2
3379;SDS011;1703;51.964;7.642;2022-07-22T00:02:02;3.30;;;2.50;;
3379;SDS011;1703;51.964;7.642;2022-07-22T00:04:29;2.13;;;2.03;;
3379;SDS011;1703;51.964;7.642;2022-07-22T00:06:56;2.40;;;2.30;;
3379;SDS011;1703;51.964;7.642;2022-07-22T00:09:24;2.80;;;2.50;;
3379;SDS011;1703;51.964;7.642;2022-07-22T00:11:51;2.47;;;2.37;;
3379;SDS011;1703;51.964;7.642;2022-07-22T00:14:17;4.77;;;2.67;;
3379;SDS011;1703;51.964;7.642;2022-07-22T00:16:44;1.77;;;1.63;;
3379;SDS011;1703;51.964;7.642;2022-07-22T00:19:11;2.03;;;1.83;;
3379;SDS011;1703;51.964;7.642;2022-07-22T00:21:38;3.00;;;1.97;;
3379;SDS011;1703;51.964;7.642;2022-07-22T00:24:05;2.30;;;2.10;;
3379;SDS011;1703;51.964;7.642;2022-07-22T00:26:33;8.07;;;1.90;;
3379;SDS011;1703;51.964;7.642;2022-07-22T00:29:00;1.80;;;1.70;;
3379;SDS011;1703;51.964;7.642;2022-07-22T00:31:27;2.10;;;1.90;;
3379;SDS011;1703;51.964;7.642;2022-07-22T00:33:55;2.30;;;2.10;;
3379;SDS011;1703;51.964;7.642;2022-07-22T00:36:22;2.23;;;2.13;;
3379;SDS011;1703;51.964;7.642;2022-07-22T00:38:49;2.33;;;1.37;;
3379;SDS011;1703;51.964;7.642;2022-07-22T00:41:16;1.80;;;1.70;;
3379;SDS011;1703;51.964;7.642;2022-07-22T00:43:54;2.00;;;1.90;;
3379;SDS011;1703;51.964;7.642;2022-07-22T00:46:24;2.10;;;2.00;;
3379;SDS011;1703;51.964;7.642;2022-07-22T00:48:52;2.87;;;2.67;;
3379;SDS011;1703;51.964;7.642;2022-07-22T00:51:19;5.50;;;2.27;;
3379;SDS011;1703;51.964;7.642;2022-07-22T00:53:48;3.10;;;2.80;;
3379;SDS011;1703;51.964;7.642;2022-07-22T00:56:15;2.83;;;2.63;;
3379;SDS011;1703;51.964;7.642;2022-07-22T00:58:43;2.80;;;2.50;;
3379;SDS011;1703;51.964;7.642;2022-07-22T01:01:13;3.20;;;2.67;;
3379;SDS011;1703;51.964;7.642;2022-07-22T01:03:40;3.10;;;2.80;;
3379;SDS011;1703;51.964;7.642;2022-07-22T01:06:07;4.50;;;2.90;;
3379;SDS011;1703;51.964;7.642;2022-07-22T01:08:34;6.43;;;3.13;;
3379;SDS011;1703;51.964;7.642;2022-07-22T01:11:08;2.70;;;2.50;;
3379;SDS011;1703;51.964;7.642;2022-07-22T01:13:35;4.80;;;3.00;;
3379;SDS011;1703;51.964;7.642;2022-07-22T01:16:03;7.80;;;3.30;;
3379;SDS011;1703;51.964;7.642;2022-07-22T01:18:32;6.37;;;3.80;;
3379;SDS011;1703;51.964;7.642;2022-07-22T01:21:00;31.23;;;4.93;;
3379;SDS011;1703;51.964;7.642;2022-07-22T01:23:27;9.13;;;3.37;;
3379;SDS011;1703;51.964;7.642;2022-07-22T01:25:54;3.47;;;3.23;;
3379;SDS011;1703;51.964;7.642;2022-07-22T01:28:22;3.70;;;3.40;;
3379;SDS011;1703;51.964;7.642;2022-07-22T01:30:49;3.17;;;2.70;;
3379;SDS011;1703;51.964;7.642;2022-07-22T01:33:16;6.37;;;4.87;;
3379;SDS011;1703;51.964;7.642;2022-07-22T01:35:44;4.73;;;3.37;;
3379;SDS011;1703;51.964;7.642;2022-07-22T01:38:12;3.80;;;3.23;;
3379;SDS011;1703;51.964;7.642;2022-07-22T01:40:40;3.57;;;3.23;;
3379;SDS011;1703;51.964;7.642;2022-07-22T01:43:09;8.33;;;3.67;;
3379;SDS011;1703;51.964;7.642;2022-07-22T01:45:36;3.53;;;3.00;;
3379;SDS011;1703;51.964;7.642;2022-07-22T01:48:03;5.20;;;3.23;;
3379;SDS011;1703;51.964;7.642;2022-07-22T01:50:31;4.10;;;3.00;;
3379;SDS011;1703;51.964;7.642;2022-07-22T01:52:58;5.50;;;2.90;;
3379;SDS011;1703;51.964;7.642;2022-07-22T01:55:27;3.20;;;3.00;;
3379;SDS011;1703;51.964;7.642;2022-07-22T01:57:54;2.73;;;2.57;;
3379;SDS011;1703;51.964;7.642;2022-07-22T02:00:26;7.60;;;3.63;;
3379;SDS011;1703;51.964;7.642;2022-07-22T02:02:53;4.47;;;3.77;;
3379;SDS011;1703;51.964;7.642;2022-07-22T02:05:20;5.00;;;2.83;;
3379;SDS011;1703;51.964;7.642;2022-07-22T02:07:47;3.47;;;3.03;;
3379;SDS011;1703;51.964;7.642;2022-07-22T02:10:17;3.20;;;2.87;;
3379;SDS011;1703;51.964;7.642;2022-07-22T02:12:45;6.33;;;2.93;;
3379;SDS011;1703;51.964;7.642;2022-07-22T02:15:12;3.20;;;2.63;;
3379;SDS011;1703;51.964;7.642;2022-07-22T02:17:40;5.63;;;3.17;;
3379;SDS011;1703;51.964;7.642;2022-07-22T02:20:07;4.60;;;2.90;;
3379;SDS011;1703;51.964;7.642;2022-07-22T02:22:34;6.73;;;2.90;;
3379;SDS011;1703;51.964;7.642;2022-07-22T02:25:02;3.17;;;2.80;;
3379;SDS011;1703;51.964;7.642;2022-07-22T02:27:29;6.30;;;2.63;;
3379;SDS011;1703;51.964;7.642;2022-07-22T02:29:58;4.53;;;3.33;;
3379;SDS011;1703;51.964;7.642;2022-07-22T02:32:25;7.20;;;3.67;;
3379;SDS011;1703;51.964;7.642;2022-07-22T02:34:52;11.60;;;4.00;;
3379;SDS011;1703;51.964;7.642;2022-07-22T02:37:19;3.80;;;3.13;;
3379;SDS011;1703;51.964;7.642;2022-07-22T02:39:46;7.50;;;4.53;;
3379;SDS011;1703;51.964;7.642;2022-07-22T02:42:14;6.93;;;3.47;;
3379;SDS011;1703;51.964;7.642;2022-07-22T02:44:43;4.73;;;3.10;;
3379;SDS011;1703;51.964;7.642;2022-07-22T02:47:11;3.10;;;2.80;;
3379;SDS011;1703;51.964;7.642;2022-07-22T02:49:39;6.30;;;3.60;;
3379;SDS011;1703;51.964;7.642;2022-07-22T02:52:06;3.40;;;3.10;;
3379;SDS011;1703;51.964;7.642;2022-07-22T02:57:02;6.20;;;2.73;;
3379;SDS011;1703;51.964;7.642;2022-07-22T02:59:29;6.67;;;3.70;;
3379;SDS011;1703;51.964;7.642;2022-07-22T03:01:56;5.73;;;3.10;;
3379;SDS011;1703;51.964;7.642;2022-07-22T03:04:24;7.00;;;3.27;;
3379;SDS011;1703;51.964;7.642;2022-07-22T03:06:51;7.10;;;3.37;;
3379;SDS011;1703;51.964;7.642;2022-07-22T03:09:21;4.70;;;3.30;;
3379;SDS011;1703;51.964;7.642;2022-07-22T03:11:48;12.00;;;3.23;;
3379;SDS011;1703;51.964;7.642;2022-07-22T03:14:15;4.47;;;3.60;;
3379;SDS011;1703;51.964;7.642;2022-07-22T03:16:43;6.07;;;4.70;;
3379;SDS011;1703;51.964;7.642;2022-07-22T03:19:11;7.27;;;3.47;;
3379;SDS011;1703;51.964;7.642;2022-07-22T03:21:39;6.13;;;3.10;;
3379;SDS011;1703;51.964;7.642;2022-07-22T03:24:06;7.57;;;4.40;;
3379;SDS011;1703;51.964;7.642;2022-07-22T03:26:33;9.33;;;5.10;;
3379;SDS011;1703;51.964;7.642;2022-07-22T03:29:00;6.57;;;3.20;;
3379;SDS011;1703;51.964;7.642;2022-07-22T03:31:28;4.67;;;3.50;;
3379;SDS011;1703;51.964;7.642;2022-07-22T03:33:55;4.23;;;3.70;;
3379;SDS011;1703;51.964;7.642;2022-07-22T03:36:22;4.47;;;3.03;;
3379;SDS011;1703;51.964;7.642;2022-07-22T03:38:52;7.70;;;4.00;;
3379;SDS011;1703;51.964;7.642;2022-07-22T03:41:19;3.80;;;3.37;;
3379;SDS011;1703;51.964;7.642;2022-07-22T03:43:46;3.40;;;3.10;;
3379;SDS011;1703;51.964;7.642;2022-07-22T03:46:14;9.93;;;3.17;;
3379;SDS011;1703;51.964;7.642;2022-07-22T03:48:41;5.27;;;2.97;;
3379;SDS011;1703;51.964;7.642;2022-07-22T03:51:08;7.97;;;2.70;;
3379;SDS011;1703;51.964;7.642;2022-07-22T03:53:36;5.73;;;2.60;;
3379;SDS011;1703;51.964;7.642;2022-07-22T03:56:05;4.83;;;2.83;;
3379;SDS011;1703;51.964;7.642;2022-07-22T03:58:33;4.67;;;3.20;;
3379;SDS011;1703;51.964;7.642;2022-07-22T04:01:00;5.87;;;3.70;;
3379;SDS011;1703;51.964;7.642;2022-07-22T04:03:27;6.40;;;2.33;;
3379;SDS011;1703;51.964;7.642;2022-07-22T04:06:20;7.00;;;3.73;;
3379;SDS011;1703;51.964;7.642;2022-07-22T04:08:52;5.97;;;2.73;;
3379;SDS011;1703;51.964;7.642;2022-07-22T04:11:21;7.20;;;3.33;;
3379;SDS011;1703;51.964;7.642;2022-07-22T04:13:49;6.20;;;3.10;;
3379;SDS011;1703;51.964;7.642;2022-07-22T04:16:16;7.37;;;3.47;;
3379;SDS011;1703;51.964;7.642;2022-07-22T04:18:54;8.20;;;2.90;;
3379;SDS011;1703;51.964;7.642;2022-07-22T04:21:37;6.57;;;2.63;;
3379;SDS011;1703;51.964;7.642;2022-07-22T04:24:08;5.07;;;2.80;;
3379;SDS011;1703;51.964;7.642;2022-07-22T04:26:37;7.13;;;2.90;;
3379;SDS011;1703;51.964;7.642;2022-07-22T04:29:04;6.70;;;3.87;;
3379;SDS011;1703;51.964;7.642;2022-07-22T04:31:33;7.30;;;3.27;;
3379;SDS011;1703;51.964;7.642;2022-07-22T04:34:07;12.63;;;2.90;;
3379;SDS011;1703;51.964;7.642;2022-07-22T04:36:33;6.97;;;2.60;;
3379;SDS011;1703;51.964;7.642;2022-07-22T04:39:01;10.00;;;3.20;;
3379;SDS011;1703;51.964;7.642;2022-07-22T04:41:28;10.60;;;2.97;;
3379;SDS011;1703;51.964;7.642;2022-07-22T04:43:56;8.53;;;3.77;;
3379;SDS011;1703;51.964;7.642;2022-07-22T04:46:25;5.03;;;2.80;;
3379;SDS011;1703;51.964;7.642;2022-07-22T04:48:54;6.30;;;2.73;;
3379;SDS011;1703;51.964;7.642;2022-07-22T04:51:20;14.33;;;3.43;;
3379;SDS011;1703;51.964;7.642;2022-07-22T04:53:52;9.90;;;4.87;;
3379;SDS011;1703;51.964;7.642;2022-07-22T04:56:23;4.30;;;3.10;;
3379;SDS011;1703;51.964;7.642;2022-07-22T04:58:50;8.73;;;3.40;;
3379;SDS011;1703;51.964;7.642;2022-07-22T05:01:19;5.10;;;3.53;;
3379;SDS011;1703;51.964;7.642;2022-07-22T05:03:49;6.33;;;2.90;;
3379;SDS011;1703;51.964;7.642;2022-07-22T05:06:17;7.47;;;2.80;;
3379;SDS011;1703;51.964;7.642;2022-07-22T05:08:43;9.73;;;2.30;;
3379;SDS011;1703;51.964;7.642;2022-07-22T05:11:10;11.23;;;2.63;;
3379;SDS011;1703;51.964;7.642;2022-07-22T05:13:38;15.57;;;3.30;;
3379;SDS011;1703;51.964;7.642;2022-07-22T05:16:06;5.70;;;3.10;;
3379;SDS011;1703;51.964;7.642;2022-07-22T05:18:37;7.93;;;2.90;;
3379;SDS011;1703;51.964;7.642;2022-07-22T05:21:05;3.70;;;2.40;;
3379;SDS011;1703;51.964;7.642;2022-07-22T05:23:33;11.53;;;2.47;;
3379;SDS011;1703;51.964;7.642;2022-07-22T05:26:00;7.70;;;2.60;;
3379;SDS011;1703;51.964;7.642;2022-07-22T05:28:27;7.67;;;3.00;;
3379;SDS011;1703;51.964;7.642;2022-07-22T05:30:53;9.50;;;3.67;;
3379;SDS011;1703;51.964;7.642;2022-07-22T05:33:24;3.90;;;2.40;;
3379;SDS011;1703;51.964;7.642;2022-07-22T05:36:04;4.93;;;2.40;;
3379;SDS011;1703;51.964;7.642;2022-07-22T05:38:36;4.80;;;2.77;;
3379;SDS011;1703;51.964;7.642;2022-07-22T05:41:04;13.10;;;3.53;;
3379;SDS011;1703;51.964;7.642;2022-07-22T05:43:31;7.33;;;2.73;;
3379;SDS011;1703;51.964;7.642;2022-07-22T05:45:59;8.87;;;2.83;;
3379;SDS011;1703;51.964;7.642;2022-07-22T05:48:26;6.20;;;1.97;;
3379;SDS011;1703;51.964;7.642;2022-07-22T05:50:53;9.10;;;3.07;;
3379;SDS011;1703;51.964;7.642;2022-07-22T05:53:21;7.33;;;2.57;;
3379;SDS011;1703;51.964;7.642;2022-07-22T05:55:48;3.57;;;2.53;;
3379;SDS011;1703;51.964;7.642;2022-07-22T05:58:14;8.20;;;2.30;;
3379;SDS011;1703;51.964;7.642;2022-07-22T06:00:41;3.43;;;1.87;;
3379;SDS011;1703;51.964;7.642;2022-07-22T06:03:08;18.87;;;2.80;;
3379;SDS011;1703;51.964;7.642;2022-07-22T06:05:36;4.23;;;1.90;;
3379;SDS011;1703;51.964;7.642;2022-07-22T06:08:05;7.63;;;2.00;;
3379;SDS011;1703;51.964;7.642;2022-07-22T06:10:42;8.43;;;2.17;;
3379;SDS011;1703;51.964;7.642;2022-07-22T06:13:09;6.17;;;1.90;;
3379;SDS011;1703;51.964;7.642;2022-07-22T06:15:38;6.60;;;2.30;;
3379;SDS011;1703;51.964;7.642;2022-07-22T06:18:05;3.83;;;2.30;;
3379;SDS011;1703;51.964;7.642;2022-07-22T06:20:32;3.93;;;2.00;;
3379;SDS011;1703;51.964;7.642;2022-07-22T06:22:59;3.87;;;2.40;;
3379;SDS011;1703;51.964;7.642;2022-07-22T06:25:26;5.93;;;1.80;;
3379;SDS011;1703;51.964;7.642;2022-07-22T06:27:54;9.37;;;2.20;;
3379;SDS011;1703;51.964;7.642;2022-07-22T06:30:21;6.83;;;2.30;;
3379;SDS011;1703;51.964;7.642;2022-07-22T06:32:48;9.03;;;2.30;;
3379;SDS011;1703;51.964;7.642;2022-07-22T06:35:15;4.70;;;2.00;;
3379;SDS011;1703;51.964;7.642;2022-07-22T06:37:42;6.50;;;2.40;;
3379;SDS011;1703;51.964;7.642;2022-07-22T06:40:10;11.13;;;2.50;;
3379;SDS011;1703;51.964;7.642;2022-07-22T06:43:08;3.30;;;1.90;;
3379;SDS011;1703;51.964;7.642;2022-07-22T06:45:55;1.57;;;1.23;;
3379;SDS011;1703;51.964;7.642;2022-07-22T06:48:32;3.30;;;1.50;;
3379;SDS011;1703;51.964;7.642;2022-07-22T06:50:59;2.80;;;1.53;;
3379;SDS011;1703;51.964;7.642;2022-07-22T06:53:25;4.23;;;1.57;;
3379;SDS011;1703;51.964;7.642;2022-07-22T06:55:52;5.13;;;1.63;;
3379;SDS011;1703;51.964;7.642;2022-07-22T06:58:20;2.93;;;1.30;;
3379;SDS011;1703;51.964;7.642;2022-07-22T07:00:47;3.87;;;1.50;;
3379;SDS011;1703;51.964;7.642;2022-07-22T07:03:14;1.97;;;1.33;;
3379;SDS011;1703;51.964;7.642;2022-07-22T07:05:41;1.60;;;1.30;;
3379;SDS011;1703;51.964;7.642;2022-07-22T07:08:08;4.50;;;1.17;;
3379;SDS011;1703;51.964;7.642;2022-07-22T07:10:36;6.87;;;1.57;;
3379;SDS011;1703;51.964;7.642;2022-07-22T07:13:08;3.20;;;1.47;;
3379;SDS011;1703;51.964;7.642;2022-07-22T07:15:41;1.60;;;1.40;;
3379;SDS011;1703;51.964;7.642;2022-07-22T07:18:09;3.20;;;1.37;;
3379;SDS011;1703;51.964;7.642;2022-07-22T07:20:36;2.97;;;1.60;;
3379;SDS011;1703;51.964;7.642;2022-07-22T07:23:05;3.73;;;1.47;;
3379;SDS011;1703;51.964;7.642;2022-07-22T07:25:37;4.47;;;1.90;;
3379;SDS011;1703;51.964;7.642;2022-07-22T07:28:03;2.33;;;1.40;;
3379;SDS011;1703;51.964;7.642;2022-07-22T07:30:55;4.47;;;1.37;;
3379;SDS011;1703;51.964;7.642;2022-07-22T07:33:22;2.17;;;1.10;;
3379;SDS011;1703;51.964;7.642;2022-07-22T07:35:50;16.10;;;2.07;;
3379;SDS011;1703;51.964;7.642;2022-07-22T07:38:26;6.70;;;1.57;;
3379;SDS011;1703;51.964;7.642;2022-07-22T07:40:52;3.87;;;1.80;;
3379;SDS011;1703;51.964;7.642;2022-07-22T07:43:20;2.20;;;1.20;;
3379;SDS011;1703;51.964;7.642;2022-07-22T07:45:47;4.37;;;1.57;;
3379;SDS011;1703;51.964;7.642;2022-07-22T07:48:16;7.13;;;1.20;;
3379;SDS011;1703;51.964;7.642;2022-07-22T07:50:43;5.00;;;1.90;;
3379;SDS011;1703;51.964;7.642;2022-07-22T07:53:12;8.43;;;2.07;;
3379;SDS011;1703;51.964;7.642;2022-07-22T07:55:40;3.23;;;1.70;;
3379;SDS011;1703;51.964;7.642;2022-07-22T07:58:07;1.60;;;1.20;;
3379;SDS011;1703;51.964;7.642;2022-07-22T08:00:35;4.70;;;1.10;;
3379;SDS011;1703;51.964;7.642;2022-07-22T08:03:05;2.90;;;1.80;;
3379;SDS011;1703;51.964;7.642;2022-07-22T08:05:33;6.50;;;1.57;;
3379;SDS011;1703;51.964;7.642;2022-07-22T08:08:00;3.17;;;1.70;;
3379;SDS011;1703;51.964;7.642;2022-07-22T08:10:29;2.10;;;1.63;;
3379;SDS011;1703;51.964;7.642;2022-07-22T08:13:02;8.63;;;3.00;;
3379;SDS011;1703;51.964;7.642;2022-07-22T08:15:40;4.80;;;1.50;;
3379;SDS011;1703;51.964;7.642;2022-07-22T08:18:17;2.20;;;1.43;;
3379;SDS011;1703;51.964;7.642;2022-07-22T08:20:45;5.77;;;1.47;;
3379;SDS011;1703;51.964;7.642;2022-07-22T08:23:12;2.83;;;2.63;;
3379;SDS011;1703;51.964;7.642;2022-07-22T08:25:42;6.00;;;1.57;;
3379;SDS011;1703;51.964;7.642;2022-07-22T08:28:10;6.77;;;1.83;;
3379;SDS011;1703;51.964;7.642;2022-07-22T08:30:38;1.50;;;1.30;;
3379;SDS011;1703;51.964;7.642;2022-07-22T08:33:05;4.77;;;1.53;;
3379;SDS011;1703;51.964;7.642;2022-07-22T08:35:34;1.97;;;1.23;;
3379;SDS011;1703;51.964;7.642;2022-07-22T08:38:03;6.33;;;1.77;;
3379;SDS011;1703;51.964;7.642;2022-07-22T08:40:30;1.67;;;1.40;;
3379;SDS011;1703;51.964;7.642;2022-07-22T08:42:59;2.57;;;1.30;;
3379;SDS011;1703;51.964;7.642;2022-07-22T08:45:29;4.27;;;1.63;;
3379;SDS011;1703;51.964;7.642;2022-07-22T08:47:56;3.50;;;1.47;;
3379;SDS011;1703;51.964;7.642;2022-07-22T08:50:42;2.60;;;1.40;;
3379;SDS011;1703;51.964;7.642;2022-07-22T08:53:31;3.10;;;1.60;;
3379;SDS011;1703;51.964;7.642;2022-07-22T08:56:07;4.47;;;1.40;;
3379;SDS011;1703;51.964;7.642;2022-07-22T08:58:34;3.43;;;1.73;;
3379;SDS011;1703;51.964;7.642;2022-07-22T09:01:03;2.53;;;1.70;;
3379;SDS011;1703;51.964;7.642;2022-07-22T09:03:31;1.70;;;1.60;;
3379;SDS011;1703;51.964;7.642;2022-07-22T09:05:59;2.90;;;1.70;;
3379;SDS011;1703;51.964;7.642;2022-07-22T09:08:27;3.73;;;1.90;;
3379;SDS011;1703;51.964;7.642;2022-07-22T09:11:15;2.03;;;1.70;;
3379;SDS011;1703;51.964;7.642;2022-07-22T09:14:21;3.33;;;1.70;;
3379;SDS011;1703;51.964;7.642;2022-07-22T09:17:21;4.00;;;2.30;;
3379;SDS011;1703;51.964;7.642;2022-07-22T09:20:15;6.30;;;2.20;;
3379;SDS011;1703;51.964;7.642;2022-07-22T09:23:05;1.70;;;1.60;;
3379;SDS011;1703;51.964;7.642;2022-07-22T09:25:36;1.93;;;1.70;;
3379;SDS011;1703;51.964;7.642;2022-07-22T09:28:22;6.90;;;1.67;;
3379;SDS011;1703;51.964;7.642;2022-07-22T09:31:08;1.33;;;1.10;;
3379;SDS011;1703;51.964;7.642;2022-07-22T09:33:52;5.53;;;1.93;;
3379;SDS011;1703;51.964;7.642;2022-07-22T09:36:21;7.27;;;2.30;;
3379;SDS011;1703;51.964;7.642;2022-07-22T09:38:50;2.53;;;2.33;;
3379;SDS011;1703;51.964;7.642;2022-07-22T09:41:17;3.90;;;2.33;;
3379;SDS011;1703;51.964;7.642;2022-07-22T09:43:45;5.40;;;1.70;;
3379;SDS011;1703;51.964;7.642;2022-07-22T09:46:13;3.50;;;1.67;;
3379;SDS011;1703;51.964;7.642;2022-07-22T09:49:12;3.27;;;2.03;;
3379;SDS011;1703;51.964;7.642;2022-07-22T09:52:19;6.10;;;3.27;;
3379;SDS011;1703;51.964;7.642;2022-07-22T09:55:02;3.00;;;2.10;;
3379;SDS011;1703;51.964;7.642;2022-07-22T09:57:31;5.60;;;2.90;;
3379;SDS011;1703;51.964;7.642;2022-07-22T10:00:00;4.40;;;1.77;;
3379;SDS011;1703;51.964;7.642;2022-07-22T10:02:50;14.20;;;2.00;;
3379;SDS011;1703;51.964;7.642;2022-07-22T10:05:20;2.83;;;2.03;;
3379;SDS011;1703;51.964;7.642;2022-07-22T10:07:49;2.50;;;2.03;;
3379;SDS011;1703;51.964;7.642;2022-07-22T10:10:16;5.80;;;2.37;;
3379;SDS011;1703;51.964;7.642;2022-07-22T10:12:45;3.67;;;2.00;;
3379;SDS011;1703;51.964;7.642;2022-07-22T10:15:16;3.83;;;1.70;;
3379;SDS011;1703;51.964;7.642;2022-07-22T10:17:44;3.43;;;2.17;;
3379;SDS011;1703;51.964;7.642;2022-07-22T10:20:15;4.40;;;2.90;;
3379;SDS011;1703;51.964;7.642;2022-07-22T10:22:47;10.87;;;2.97;;
3379;SDS011;1703;51.964;7.642;2022-07-22T10:25:16;2.30;;;2.10;;
3379;SDS011;1703;51.964;7.642;2022-07-22T10:27:45;4.60;;;2.40;;
3379;SDS011;1703;51.964;7.642;2022-07-22T10:30:13;4.90;;;2.50;;
3379;SDS011;1703;51.964;7.642;2022-07-22T10:32:43;2.80;;;2.13;;
3379;SDS011;1703;51.964;7.642;2022-07-22T10:35:21;2.50;;;1.93;;
3379;SDS011;1703;51.964;7.642;2022-07-22T10:37:57;2.37;;;2.20;;
3379;SDS011;1703;51.964;7.642;2022-07-22T10:40:26;1.67;;;1.40;;
3379;SDS011;1703;51.964;7.642;2022-07-22T10:43:04;3.07;;;1.80;;
3379;SDS011;1703;51.964;7.642;2022-07-22T10:45:36;3.50;;;2.10;;
3379;SDS011;1703;51.964;7.642;2022-07-22T10:48:05;4.20;;;2.00;;
3379;SDS011;1703;51.964;7.642;2022-07-22T10:50:38;4.57;;;2.10;;
3379;SDS011;1703;51.964;7.642;2022-07-22T10:53:09;3.43;;;1.97;;
3379;SDS011;1703;51.964;7.642;2022-07-22T10:55:37;1.83;;;1.70;;
3379;SDS011;1703;51.964;7.642;2022-07-22T11:01:09;4.40;;;3.73;;
3379;SDS011;1703;51.964;7.642;2022-07-22T11:03:37;3.07;;;1.70;;
3379;SDS011;1703;51.964;7.642;2022-07-22T11:08:56;4.40;;;2.10;;
3379;SDS011;1703;51.964;7.642;2022-07-22T11:11:31;1.67;;;1.50;;
3379;SDS011;1703;51.964;7.642;2022-07-22T11:13:58;2.43;;;1.57;;
3379;SDS011;1703;51.964;7.642;2022-07-22T11:16:27;2.83;;;1.87;;
3379;SDS011;1703;51.964;7.642;2022-07-22T11:18:55;4.80;;;1.57;;
3379;SDS011;1703;51.964;7.642;2022-07-22T11:21:24;3.67;;;2.03;;
3379;SDS011;1703;51.964;7.642;2022-07-22T11:23:53;7.10;;;2.50;;
3379;SDS011;1703;51.964;7.642;2022-07-22T11:26:24;7.90;;;2.37;;
3379;SDS011;1703;51.964;7.642;2022-07-22T11:28:52;5.20;;;2.50;;
3379;SDS011;1703;51.964;7.642;2022-07-22T11:31:19;4.20;;;1.73;;
3379;SDS011;1703;51.964;7.642;2022-07-22T11:33:47;5.13;;;2.37;;
3379;SDS011;1703;51.964;7.642;2022-07-22T11:36:14;3.90;;;2.60;;
3379;SDS011;1703;51.964;7.642;2022-07-22T11:38:42;3.90;;;1.77;;
3379;SDS011;1703;51.964;7.642;2022-07-22T11:41:10;1.87;;;1.53;;
3379;SDS011;1703;51.964;7.642;2022-07-22T11:43:38;4.77;;;2.20;;
3379;SDS011;1703;51.964;7.642;2022-07-22T11:46:06;3.70;;;1.70;;
3379;SDS011;1703;51.964;7.642;2022-07-22T11:48:33;2.33;;;2.10;;
3379;SDS011;1703;51.964;7.642;2022-07-22T11:51:01;7.27;;;2.50;;
3379;SDS011;1703;51.964;7.642;2022-07-22T11:53:29;6.30;;;2.73;;
3379;SDS011;1703;51.964;7.642;2022-07-22T11:55:56;4.80;;;1.63;;
3379;SDS011;1703;51.964;7.642;2022-07-22T12:01:09;3.67;;;1.77;;
3379;SDS011;1703;51.964;7.642;2022-07-22T12:03:37;4.10;;;2.27;;
3379;SDS011;1703;51.964;7.642;2022-07-22T12:06:08;2.90;;;2.00;;
3379;SDS011;1703;51.964;7.642;2022-07-22T12:08:39;3.63;;;2.43;;
3379;SDS011;1703;51.964;7.642;2022-07-22T12:11:08;3.73;;;2.30;;
3379;SDS011;1703;51.964;7.642;2022-07-22T12:13:36;8.70;;;3.10;;
3379;SDS011;1703;51.964;7.642;2022-07-22T12:16:18;4.70;;;2.57;;
3379;SDS011;1703;51.964;7.642;2022-07-22T12:18:50;9.83;;;2.63;;
3379;SDS011;1703;51.964;7.642;2022-07-22T12:21:20;3.53;;;2.30;;
3379;SDS011;1703;51.964;7.642;2022-07-22T12:23:49;5.97;;;2.20;;
3379;SDS011;1703;51.964;7.642;2022-07-22T12:26:17;4.20;;;1.97;;
3379;SDS011;1703;51.964;7.642;2022-07-22T12:28:44;2.93;;;2.40;;
3379;SDS011;1703;51.964;7.642;2022-07-22T12:31:16;3.23;;;2.93;;
3379;SDS011;1703;51.964;7.642;2022-07-22T12:33:46;6.07;;;3.03;;
3379;SDS011;1703;51.964;7.642;2022-07-22T12:36:14;5.97;;;2.13;;
3379;SDS011;1703;51.964;7.642;2022-07-22T12:38:42;7.20;;;2.07;;
3379;SDS011;1703;51.964;7.642;2022-07-22T12:41:22;3.17;;;2.57;;
3379;SDS011;1703;51.964;7.642;2022-07-22T12:43:49;6.77;;;2.20;;
3379;SDS011;1703;51.964;7.642;2022-07-22T12:46:17;7.57;;;2.37;;
3379;SDS011;1703;51.964;7.642;2022-07-22T12:48:48;3.10;;;2.77;;
3379;SDS011;1703;51.964;7.642;2022-07-22T12:51:19;4.83;;;2.20;;
3379;SDS011;1703;51.964;7.642;2022-07-22T12:53:48;4.00;;;2.50;;
3379;SDS011;1703;51.964;7.642;2022-07-22T12:56:19;4.80;;;2.40;;
3379;SDS011;1703;51.964;7.642;2022-07-22T12:58:48;6.43;;;2.73;;
3379;SDS011;1703;51.964;7.642;2022-07-22T13:01:23;3.80;;;3.40;;
3379;SDS011;1703;51.964;7.642;2022-07-22T13:03:50;9.63;;;2.50;;
3379;SDS011;1703;51.964;7.642;2022-07-22T13:06:26;6.23;;;2.90;;
3379;SDS011;1703;51.964;7.642;2022-07-22T13:08:57;3.30;;;2.50;;
3379;SDS011;1703;51.964;7.642;2022-07-22T13:11:25;3.00;;;2.67;;
3379;SDS011;1703;51.964;7.642;2022-07-22T13:13:57;6.33;;;2.27;;
3379;SDS011;1703;51.964;7.642;2022-07-22T13:16:23;3.90;;;2.40;;
3379;SDS011;1703;51.964;7.642;2022-07-22T13:18:51;3.47;;;3.17;;
3379;SDS011;1703;51.964;7.642;2022-07-22T13:21:23;7.90;;;2.10;;
3379;SDS011;1703;51.964;7.642;2022-07-22T13:24:27;6.00;;;2.87;;
3379;SDS011;1703;51.964;7.642;2022-07-22T13:26:54;4.60;;;2.30;;
3379;SDS011;1703;51.964;7.642;2022-07-22T13:29:21;2.70;;;2.30;;
3379;SDS011;1703;51.964;7.642;2022-07-22T13:31:49;5.67;;;2.40;;
3379;SDS011;1703;51.964;7.642;2022-07-22T13:34:16;5.23;;;2.60;;
3379;SDS011;1703;51.964;7.642;2022-07-22T13:36:42;2.73;;;2.13;;
3379;SDS011;1703;51.964;7.642;2022-07-22T13:39:17;9.53;;;3.70;;
3379;SDS011;1703;51.964;7.642;2022-07-22T13:41:45;12.63;;;3.00;;
3379;SDS011;1703;51.964;7.642;2022-07-22T13:44:12;2.83;;;2.50;;
3379;SDS011;1703;51.964;7.642;2022-07-22T13:46:39;4.50;;;2.13;;
3379;SDS011;1703;51.964;7.642;2022-07-22T13:49:07;3.50;;;3.20;;
3379;SDS011;1703;51.964;7.642;2022-07-22T13:51:34;6.03;;;3.30;;
3379;SDS011;1703;51.964;7.642;2022-07-22T13:54:03;4.33;;;2.17;;
3379;SDS011;1703;51.964;7.642;2022-07-22T13:56:31;4.70;;;2.30;;
3379;SDS011;1703;51.964;7.642;2022-07-22T13:59:00;3.63;;;2.50;;
3379;SDS011;1703;51.964;7.642;2022-07-22T14:01:27;2.70;;;1.97;;
3379;SDS011;1703;51.964;7.642;2022-07-22T14:03:54;4.53;;;2.20;;
3379;SDS011;1703;51.964;7.642;2022-07-22T14:06:21;3.43;;;2.90;;
3379;SDS011;1703;51.964;7.642;2022-07-22T14:08:48;4.33;;;2.07;;
3379;SDS011;1703;51.964;7.642;2022-07-22T14:11:15;2.20;;;2.00;;
3379;SDS011;1703;51.964;7.642;2022-07-22T14:13:42;3.47;;;2.53;;
3379;SDS011;1703;51.964;7.642;2022-07-22T14:16:10;3.10;;;2.70;;
3379;SDS011;1703;51.964;7.642;2022-07-22T14:18:55;10.47;;;3.30;;
3379;SDS011;1703;51.964;7.642;2022-07-22T14:21:21;2.70;;;2.50;;
3379;SDS011;1703;51.964;7.642;2022-07-22T14:23:48;4.87;;;2.63;;
3379;SDS011;1703;51.964;7.642;2022-07-22T14:26:15;15.00;;;3.97;;
3379;SDS011;1703;51.964;7.642;2022-07-22T14:28:49;6.73;;;2.73;;
3379;SDS011;1703;51.964;7.642;2022-07-22T14:31:18;4.57;;;2.47;;
3379;SDS011;1703;51.964;7.642;2022-07-22T14:33:45;2.53;;;2.33;;
3379;SDS011;1703;51.964;7.642;2022-07-22T14:36:12;2.93;;;2.40;;
3379;SDS011;1703;51.964;7.642;2022-07-22T14:38:39;5.10;;;3.20;;
3379;SDS011;1703;51.964;7.642;2022-07-22T14:41:05;2.70;;;2.03;;
3379;SDS011;1703;51.964;7.642;2022-07-22T14:43:32;3.40;;;2.40;;
3379;SDS011;1703;51.964;7.642;2022-07-22T14:46:00;5.60;;;2.87;;
3379;SDS011;1703;51.964;7.642;2022-07-22T14:48:28;4.03;;;2.30;;
3379;SDS011;1703;51.964;7.642;2022-07-22T14:50:55;4.70;;;3.43;;
3379;SDS011;1703;51.964;7.642;2022-07-22T14:53:21;5.40;;;2.80;;
3379;SDS011;1703;51.964;7.642;2022-07-22T14:55:49;5.07;;;2.57;;
3379;SDS011;1703;51.964;7.642;2022-07-22T14:58:15;4.23;;;2.60;;
3379;SDS011;1703;51.964;7.642;2022-07-22T15:00:43;3.27;;;2.97;;
3379;SDS011;1703;51.964;7.642;2022-07-22T15:03:11;4.60;;;2.77;;
3379;SDS011;1703;51.964;7.642;2022-07-22T15:05:39;3.97;;;2.30;;
3379;SDS011;1703;51.964;7.642;2022-07-22T15:08:07;7.33;;;2.80;;
3379;SDS011;1703;51.964;7.642;2022-07-22T15:10:34;5.43;;;4.93;;
3379;SDS011;1703;51.964;7.642;2022-07-22T15:13:02;4.63;;;2.43;;
3379;SDS011;1703;51.964;7.642;2022-07-22T15:15:29;3.73;;;2.33;;
3379;SDS011;1703;51.964;7.642;2022-07-22T15:17:56;3.73;;;2.70;;
3379;SDS011;1703;51.964;7.642;2022-07-22T15:20:23;2.90;;;2.67;;
3379;SDS011;1703;51.964;7.642;2022-07-22T15:22:52;9.33;;;2.80;;
3379;SDS011;1703;51.964;7.642;2022-07-22T15:25:19;3.40;;;2.50;;
3379;SDS011;1703;51.964;7.642;2022-07-22T15:27:47;2.87;;;2.60;;
3379;SDS011;1703;51.964;7.642;2022-07-22T15:30:14;6.47;;;2.47;;
3379;SDS011;1703;51.964;7.642;2022-07-22T15:32:41;3.80;;;2.23;;
3379;SDS011;1703;51.964;7.642;2022-07-22T15:35:08;4.10;;;2.80;;
3379;SDS011;1703;51.964;7.642;2022-07-22T15:37:35;3.83;;;2.07;;
3379;SDS011;1703;51.964;7.642;2022-07-22T15:40:05;3.93;;;2.40;;
3379;SDS011;1703;51.964;7.642;2022-07-22T15:42:33;2.63;;;2.37;;